createdAt,value
2019-02-06T00:01:29.637Z,5.09
2019-02-06T00:04:59.790Z,3.79
2019-02-06T00:08:29.890Z,4.29
2019-02-06T00:12:00.030Z,1.2
2019-02-06T00:15:30.120Z,3.94
2019-02-06T00:19:00.263Z,4.36
2019-02-06T00:22:30.398Z,4.44
2019-02-06T00:26:02.554Z,4.18
2019-02-06T00:29:33.114Z,5.42
2019-02-06T00:33:03.757Z,4.27
2019-02-06T00:36:33.899Z,4.38
2019-02-06T00:40:04.402Z,1.76
2019-02-06T00:43:34.482Z,4.89
2019-02-06T00:47:04.594Z,4.11
2019-02-06T00:50:34.658Z,4.65
2019-02-06T00:54:04.815Z,2.24
2019-02-06T00:57:34.928Z,3.31
2019-02-06T01:01:05.373Z,4.04
2019-02-06T01:04:35.485Z,3.64
2019-02-06T01:08:05.685Z,4.71
2019-02-06T01:11:35.796Z,3.9
2019-02-06T01:15:07.584Z,3.55
2019-02-06T01:18:37.707Z,3.58
2019-02-06T01:22:07.894Z,4.14
2019-02-06T01:25:38.013Z,3.9
2019-02-06T01:29:09.247Z,4.88
2019-02-06T01:32:39.303Z,3.61
2019-02-06T01:36:09.514Z,3.35
2019-02-06T01:39:39.596Z,4.86
2019-02-06T01:43:10.050Z,4.11
2019-02-06T01:46:40.433Z,4.04
2019-02-06T01:50:11.316Z,4.42
2019-02-06T01:53:41.365Z,5.6
2019-02-06T01:57:11.524Z,5.14
2019-02-06T02:00:21.285Z,2.08
2019-02-06T02:03:51.388Z,4.6
2019-02-06T02:07:21.441Z,4.24
2019-02-06T02:10:52.160Z,4.85
2019-02-06T02:14:22.478Z,3.49
2019-02-06T02:17:52.591Z,5.39
2019-02-06T02:21:22.694Z,5.62
2019-02-06T02:24:52.978Z,5.64
2019-02-06T02:28:23.061Z,3.46
2019-02-06T02:31:54.215Z,4.78
2019-02-06T02:35:24.367Z,5.19
2019-02-06T02:38:54.551Z,5.97
2019-02-06T02:42:24.543Z,5.94
2019-02-06T02:45:54.873Z,6.08
2019-02-06T02:49:24.900Z,4.97
2019-02-06T02:52:55.018Z,7.42
2019-02-06T02:56:25.038Z,7.31
2019-02-06T02:59:55.229Z,8.57
2019-02-06T03:05:44.985Z,8.19
2019-02-06T03:09:15.089Z,7.49
2019-02-06T03:12:45.151Z,6.82
2019-02-06T03:16:15.218Z,5.92
2019-02-06T03:19:45.528Z,5.24
2019-02-06T03:23:15.818Z,6.53
2019-02-06T03:26:46.384Z,9.1
2019-02-06T03:30:16.517Z,7.83
2019-02-06T03:33:47.561Z,7.95
2019-02-06T03:37:17.616Z,8.04
2019-02-06T03:40:47.671Z,8.2
2019-02-06T03:44:17.829Z,9.12
2019-02-06T03:47:47.963Z,7.65
2019-02-06T03:51:18.123Z,7.7
2019-02-06T03:54:48.270Z,7.92
2019-02-06T03:58:18.373Z,8.43
2019-02-06T04:00:19.735Z,9.29
2019-02-06T04:03:49.775Z,8.33
2019-02-06T04:07:19.922Z,8.82
2019-02-06T04:10:49.970Z,8.95
2019-02-06T04:14:20.192Z,9.21
2019-02-06T04:17:50.279Z,8.3
2019-02-06T04:21:20.465Z,10.01
2019-02-06T04:24:51.795Z,10.07
2019-02-06T04:28:21.917Z,9.12
2019-02-06T04:31:51.955Z,10.57
2019-02-06T04:35:23.035Z,10.76
2019-02-06T04:38:53.135Z,11.05
2019-02-06T04:42:23.186Z,9.11
2019-02-06T04:45:53.180Z,9.64
2019-02-06T04:49:23.237Z,10.34
2019-02-06T04:52:53.342Z,10.45
2019-02-06T04:56:23.400Z,9.66
2019-02-06T04:59:53.520Z,8.47
2019-02-06T05:03:25.860Z,10.06
2019-02-06T05:06:56.214Z,8.81
2019-02-06T05:10:26.356Z,9.45
2019-02-06T05:13:56.329Z,5.2
2019-02-06T05:17:26.452Z,9.61
2019-02-06T05:20:56.595Z,3.51
2019-02-06T05:24:26.699Z,9.2
2019-02-06T05:27:56.923Z,9.88
2019-02-06T05:31:27.035Z,8.95
2019-02-06T05:34:57.158Z,10.66
2019-02-06T05:38:28.262Z,10.06
2019-02-06T05:41:58.416Z,7.99
2019-02-06T05:45:28.590Z,6.94
2019-02-06T05:48:58.762Z,8.24
2019-02-06T05:52:28.855Z,10.41
2019-02-06T05:55:58.957Z,8.98
2019-02-06T05:59:29.132Z,8.8
2019-02-06T06:00:18.844Z,11.06
2019-02-06T06:03:48.905Z,9.06
2019-02-06T06:07:18.953Z,10.04
2019-02-06T06:10:49.228Z,10.29
2019-02-06T06:14:19.446Z,8.25
2019-02-06T06:17:49.637Z,11.2
2019-02-06T06:21:19.891Z,8.75
2019-02-06T06:24:50.005Z,6.7
2019-02-06T06:28:20.153Z,11.59
2019-02-06T06:31:50.241Z,8.79
2019-02-06T06:35:20.314Z,10.61
2019-02-06T06:38:51.380Z,9.9
2019-02-06T06:42:24.146Z,14.29
2019-02-06T06:45:54.523Z,9.26
2019-02-06T06:49:24.546Z,11.32
2019-02-06T06:52:54.610Z,10.89
2019-02-06T06:56:25.003Z,8.29
2019-02-06T06:59:55.715Z,10.51
2019-02-06T07:03:25.910Z,8.09
2019-02-06T07:06:55.941Z,9.12
2019-02-06T07:10:26.095Z,8.22
2019-02-06T07:13:56.169Z,11.64
2019-02-06T07:17:26.296Z,9.93
2019-02-06T07:20:56.355Z,8.99
2019-02-06T07:24:26.489Z,8.99
2019-02-06T07:27:56.802Z,8.69
2019-02-06T07:31:27.021Z,11.5
2019-02-06T07:34:57.089Z,10.18
2019-02-06T07:38:27.252Z,9.88
2019-02-06T07:41:57.539Z,9.56
2019-02-06T07:45:27.651Z,8.56
2019-02-06T07:48:57.673Z,8.45
2019-02-06T07:52:27.737Z,9.88
2019-02-06T07:55:57.888Z,10.99
2019-02-06T07:59:27.952Z,10.77
2019-02-06T08:00:16.353Z,12.1
2019-02-06T08:03:46.526Z,11.82
2019-02-06T08:07:16.659Z,10.26
2019-02-06T08:10:46.722Z,10.11
2019-02-06T08:14:16.786Z,10.68
2019-02-06T08:17:47.029Z,9.56
2019-02-06T08:21:17.622Z,9.96
2019-02-06T08:24:47.716Z,6.61
2019-02-06T08:28:17.969Z,5.04
2019-02-06T08:31:48.014Z,10.29
2019-02-06T08:35:18.359Z,10.89
2019-02-06T08:38:50.662Z,9.49
2019-02-06T08:42:21.982Z,10.21
2019-02-06T08:45:52.176Z,11.51
2019-02-06T08:49:22.308Z,10.97
2019-02-06T08:52:52.638Z,6.54
2019-02-06T08:56:22.890Z,10.26
2019-02-06T08:59:52.968Z,8.14
2019-02-06T09:03:23.131Z,10.16
2019-02-06T09:06:53.225Z,11.44
2019-02-06T09:10:23.619Z,7.86
2019-02-06T09:13:53.652Z,11.11
2019-02-06T09:17:23.944Z,4.41
2019-02-06T09:20:54.079Z,10.86
2019-02-06T09:24:24.191Z,14.4
2019-02-06T09:27:55.096Z,7.12
2019-02-06T09:31:25.201Z,8.47
2019-02-06T09:34:55.284Z,7.31
2019-02-06T09:38:25.594Z,4.15
2019-02-06T09:41:55.747Z,11.16
2019-02-06T09:45:26.260Z,9.53
2019-02-06T09:48:56.344Z,9.01
2019-02-06T09:52:28.727Z,10.28
2019-02-06T09:55:59.310Z,11.78
2019-02-06T09:59:29.714Z,9.35
2019-02-06T10:00:19.595Z,9.9
2019-02-06T10:03:49.669Z,8.81
2019-02-06T10:07:19.900Z,10.44
2019-02-06T10:10:49.964Z,7.8
2019-02-06T10:14:20.268Z,10.22
2019-02-06T10:17:51.020Z,7.25
2019-02-06T10:21:21.363Z,7.97
2019-02-06T10:24:51.766Z,4.06
2019-02-06T10:28:24.113Z,4.39
2019-02-06T10:31:54.542Z,7.15
2019-02-06T10:35:24.716Z,7.69
2019-02-06T10:38:54.819Z,6.85
2019-02-06T10:42:24.942Z,4.01
2019-02-06T10:45:55.894Z,7.12
2019-02-06T10:49:26.018Z,7.81
2019-02-06T10:52:56.174Z,9.35
2019-02-06T10:56:26.307Z,10.77
2019-02-06T10:59:56.470Z,10.93
2019-02-06T11:03:26.581Z,9.45
2019-02-06T11:06:56.714Z,9.21
2019-02-06T11:10:27.049Z,3.83
2019-02-06T11:13:57.101Z,9.43
2019-02-06T11:17:27.344Z,9.44
2019-02-06T11:20:57.467Z,11.22
2019-02-06T11:24:27.530Z,12.69
2019-02-06T11:27:57.673Z,13.36
2019-02-06T11:31:27.666Z,14.24
2019-02-06T11:34:58.170Z,10.44
2019-02-06T11:38:28.575Z,9.93
2019-02-06T11:41:58.806Z,9.52
2019-02-06T11:45:30.610Z,10.05
2019-02-06T11:49:01.580Z,12.98
2019-02-06T11:52:31.736Z,10.06
2019-02-06T11:56:01.922Z,10.9
2019-02-06T11:59:32.112Z,11.01
2019-02-06T12:00:20.142Z,5.11
2019-02-06T12:03:50.226Z,10.41
2019-02-06T12:07:20.369Z,8.6
2019-02-06T12:10:50.543Z,9.53
2019-02-06T12:14:20.616Z,11.5
2019-02-06T12:17:50.889Z,11.53
2019-02-06T12:21:21.113Z,9.64
2019-02-06T12:24:51.245Z,7.08
2019-02-06T12:28:21.438Z,9.24
2019-02-06T12:31:51.486Z,11.28
2019-02-06T12:35:21.805Z,7.88
2019-02-06T12:38:53.814Z,9.43
2019-02-06T12:42:24.302Z,7.62
2019-02-06T12:45:54.414Z,9.26
2019-02-06T12:49:25.678Z,6.01
2019-02-06T12:52:57.507Z,8.01
2019-02-06T12:56:27.824Z,9.35
2019-02-06T12:59:57.997Z,8.56
2019-02-06T13:03:28.151Z,9.05
2019-02-06T13:07:00.263Z,8.28
2019-02-06T13:10:33.930Z,9.2
2019-02-06T13:14:04.847Z,7.56
2019-02-06T13:17:34.923Z,8.49
2019-02-06T13:21:05.067Z,8.82
2019-02-06T13:24:35.124Z,10.81
2019-02-06T13:28:05.506Z,9.81
2019-02-06T13:31:36.106Z,9.98
2019-02-06T13:35:07.730Z,9.06
2019-02-06T13:38:37.873Z,8.56
2019-02-06T13:42:07.916Z,12.01
2019-02-06T13:45:41.439Z,9.97
2019-02-06T13:49:11.623Z,11.57
2019-02-06T13:52:42.016Z,12.41
2019-02-06T13:56:12.169Z,11.06
2019-02-06T13:59:42.303Z,23.54
2019-02-06T14:00:19.773Z,27.14
2019-02-06T14:03:49.886Z,13.25
2019-02-06T14:07:20.043Z,10.88
2019-02-06T14:11:00.147Z,11.06
2019-02-06T14:14:30.676Z,10.97
2019-02-06T14:18:00.823Z,8.76
2019-02-06T14:21:30.843Z,10.75
2019-02-06T14:25:18.106Z,9.9
2019-02-06T14:29:46.371Z,11.45
2019-02-06T14:33:28.987Z,9.42
2019-02-06T14:37:19.137Z,1.79
2019-02-06T14:41:08.313Z,7.4
2019-02-06T14:46:06.833Z,8.43
2019-02-06T14:49:54.406Z,8.62
2019-02-06T14:53:35.446Z,7.95
2019-02-06T14:57:21.891Z,8.96
2019-02-06T15:01:03.011Z,8.38
2019-02-06T15:04:43.400Z,9.21
2019-02-06T15:08:30.537Z,8.81
2019-02-06T15:12:09.609Z,10.1
2019-02-06T15:15:49.993Z,8.16
2019-02-06T15:19:32.655Z,9.03
2019-02-06T15:23:10.937Z,10.04
2019-02-06T15:31:27.915Z,9.18
2019-02-06T15:35:23.578Z,8.54
2019-02-06T15:40:12.998Z,9.41
2019-02-06T15:44:25.156Z,8.5
2019-02-06T15:48:10.956Z,8.74
2019-02-06T15:54:23.742Z,9.47
2019-02-06T16:02:55.891Z,8.32
2019-02-06T16:09:19.887Z,12.39
2019-02-06T16:13:22.822Z,10.51
2019-02-06T16:17:23.484Z,8.55
2019-02-06T16:21:21.658Z,8.53
2019-02-06T16:25:19.650Z,7.44
2019-02-06T16:29:10.323Z,6.22
2019-02-06T16:33:07.627Z,7.51
2019-02-06T16:36:54.193Z,6.85
2019-02-06T16:40:39.843Z,7.01
2019-02-06T16:44:18.927Z,6.52
2019-02-06T16:48:12.293Z,6.5
2019-02-06T16:53:01.345Z,7.61
2019-02-06T16:57:21.247Z,6.41
2019-02-06T17:03:49.764Z,7.56
2019-02-06T17:09:17.059Z,7.58
2019-02-06T17:14:35.592Z,8.19
2019-02-06T17:18:15.369Z,7.78
2019-02-06T17:22:12.077Z,8.76
2019-02-06T17:26:10.751Z,7.89
2019-02-06T17:32:51.868Z,8.55
2019-02-06T17:36:40.781Z,7.33
2019-02-06T17:42:57.810Z,7.99
2019-02-06T17:51:36.753Z,7.21
2019-02-06T17:55:23.776Z,7.24
2019-02-06T17:58:54.020Z,7.15
2019-02-06T18:00:20.083Z,9.47
2019-02-06T18:03:54.054Z,9.84
2019-02-06T18:07:24.288Z,11.75
2019-02-06T18:10:54.849Z,9.19
2019-02-06T18:14:24.962Z,7.51
2019-02-06T18:17:57.905Z,7.79
2019-02-06T18:21:28.178Z,8.8
2019-02-06T18:24:58.382Z,8.4
2019-02-06T18:28:28.610Z,9.29
2019-02-06T18:31:58.836Z,6.94
2019-02-06T18:35:29.079Z,7.48
2019-02-06T18:38:59.205Z,4.36
2019-02-06T18:42:36.960Z,9.12
2019-02-06T18:46:08.329Z,8.9
2019-02-06T18:49:38.742Z,11.05
2019-02-06T18:53:09.085Z,8.15
2019-02-06T18:56:39.478Z,8.44
2019-02-06T19:00:15.189Z,7.69
2019-02-06T19:03:45.971Z,6.86
2019-02-06T19:07:16.387Z,6.11
2019-02-06T19:10:46.643Z,7.44
2019-02-06T19:14:16.832Z,6.91
2019-02-06T19:17:47.056Z,6.85
2019-02-06T19:21:17.218Z,7.52
2019-02-06T19:24:47.362Z,8.34
2019-02-06T19:28:18.174Z,8.04
2019-02-06T19:31:48.297Z,8.34
2019-02-06T19:35:18.570Z,9.26
2019-02-06T19:38:48.693Z,8.31
2019-02-06T19:42:18.868Z,9.4
2019-02-06T19:45:49.059Z,9.62
2019-02-06T19:49:19.201Z,10.62
2019-02-06T19:52:49.466Z,10.18
2019-02-06T19:56:19.628Z,10.26
2019-02-06T19:59:49.740Z,10.88
2019-02-06T20:00:20.341Z,12.54
2019-02-06T20:03:52.609Z,11.3
2019-02-06T20:07:22.997Z,8.44
2019-02-06T20:10:53.339Z,3.59
2019-02-06T20:14:23.393Z,7.86
2019-02-06T20:17:53.505Z,8.69
2019-02-06T20:21:23.628Z,8.78
2019-02-06T20:24:53.713Z,9.35
2019-02-06T20:28:23.894Z,1.86
2019-02-06T20:31:54.057Z,8.49
2019-02-06T20:35:24.450Z,8.74
2019-02-06T20:38:55.013Z,9.26
2019-02-06T20:42:25.426Z,7.95
2019-02-06T20:45:55.939Z,8.06
2019-02-06T20:49:26.251Z,4.91
2019-02-06T20:52:56.514Z,6.7
2019-02-06T20:56:26.677Z,4.72
2019-02-06T20:59:56.727Z,7.81
2019-02-06T21:03:27.873Z,7.96
2019-02-06T21:06:58.046Z,8.67
2019-02-06T21:10:28.859Z,6.95
2019-02-06T21:13:58.943Z,8.75
2019-02-06T21:17:29.634Z,4.65
2019-02-06T21:20:59.680Z,9.23
2019-02-06T21:24:29.840Z,4.45
2019-02-06T21:27:59.997Z,11.3
2019-02-06T21:31:30.066Z,7.2
2019-02-06T21:35:00.314Z,9.67
2019-02-06T21:38:30.392Z,13.3
2019-02-06T21:42:00.535Z,11.05
2019-02-06T21:45:30.639Z,11.72
2019-02-06T21:49:00.760Z,13.51
2019-02-06T21:52:31.002Z,10.95
2019-02-06T21:56:01.076Z,13.29
2019-02-06T21:59:31.197Z,14.61
2019-02-06T22:00:19.155Z,15.29
2019-02-06T22:03:50.442Z,12.57
2019-02-06T22:07:20.499Z,8.3
2019-02-06T22:10:50.597Z,12.96
2019-02-06T22:14:20.726Z,14.14
2019-02-06T22:17:50.952Z,12.03
2019-02-06T22:21:21.166Z,13.61
2019-02-06T22:24:51.267Z,11.43
2019-02-06T22:28:21.740Z,14.44
2019-02-06T22:31:52.170Z,11.9
2019-02-06T22:35:22.712Z,13.59
2019-02-06T22:38:52.921Z,13.66
2019-02-06T22:42:23.051Z,12.56
2019-02-06T22:45:53.122Z,14.14
2019-02-06T22:49:23.304Z,11.81
2019-02-06T22:52:53.432Z,13.71
2019-02-06T22:56:23.563Z,3.71
2019-02-06T22:59:53.654Z,15.98
2019-02-06T23:03:27.324Z,10
2019-02-06T23:06:58.424Z,9.34
2019-02-06T23:10:28.875Z,13.1
2019-02-06T23:13:59.125Z,13
2019-02-06T23:17:29.265Z,14.29
2019-02-06T23:20:59.306Z,12.27
2019-02-06T23:24:29.406Z,12.47
2019-02-06T23:27:59.494Z,14.21
2019-02-06T23:31:29.908Z,14.28
2019-02-06T23:34:59.968Z,15.35
2019-02-06T23:38:30.138Z,12.21
2019-02-06T23:42:00.159Z,11.4
2019-02-06T23:45:30.374Z,11.32
2019-02-06T23:49:00.549Z,13.12
2019-02-06T23:52:30.642Z,14.07
2019-02-06T23:56:00.762Z,9.11
2019-02-06T23:59:30.981Z,13.65
